Time;durP1;ratioP1;P1;durP2;ratioP2;P2;SDS_P1;SDS_P2;PMS_P1;PMS_P2;Temp;Humidity;BMP_temperature;BMP_pressure;BME280_temperature;BME280_humidity;BME280_pressure;Samples;Min_cycle;Max_cycle;Signal;HPM_P1;HPM_P2
2021/06/23 00:01:13;;;;;;;7.67;1.40;;;13.70;99.90;;;;;;5037283;28;20226;-80
2021/06/23 00:03:40;;;;;;;3.37;1.30;;;13.80;99.90;;;;;;5037437;28;20198;-80
2021/06/23 00:06:07;;;;;;;12.03;1.77;;;13.70;99.90;;;;;;5037243;28;20198;-79
2021/06/23 00:08:34;;;;;;;8.23;1.70;;;13.70;99.90;;;;;;5020243;28;20203;-78
2021/06/23 00:11:03;;;;;;;5.50;1.40;;;13.80;99.90;;;;;;5023373;28;20233;-78
2021/06/23 00:13:32;;;;;;;6.97;1.77;;;13.70;99.90;;;;;;5036504;28;20546;-80
2021/06/23 00:15:59;;;;;;;7.23;1.80;;;13.70;99.90;;;;;;5036313;28;20194;-79
2021/06/23 00:18:26;;;;;;;9.33;1.73;;;13.70;99.90;;;;;;5017195;28;20202;-79
2021/06/23 00:20:53;;;;;;;6.13;2.00;;;13.70;99.90;;;;;;5016807;28;20230;-80
2021/06/23 00:23:20;;;;;;;5.53;1.33;;;13.70;99.90;;;;;;5017096;28;20194;-83
2021/06/23 00:25:46;;;;;;;9.70;1.70;;;13.70;99.90;;;;;;5017612;28;20204;-80
2021/06/23 00:28:14;;;;;;;7.43;1.63;;;13.80;99.90;;;;;;5016444;28;20595;-77
2021/06/23 00:30:42;;;;;;;4.97;1.30;;;13.70;99.90;;;;;;5034082;28;20207;-82
2021/06/23 00:33:11;;;;;;;3.93;1.37;;;13.70;99.90;;;;;;5036610;28;20202;-80
2021/06/23 00:35:37;;;;;;;6.13;1.60;;;13.70;99.90;;;;;;5036037;28;20210;-78
2021/06/23 00:38:05;;;;;;;5.73;1.50;;;13.70;99.90;;;;;;5036524;28;20205;-78
2021/06/23 00:40:32;;;;;;;4.20;1.90;;;13.70;99.90;;;;;;5035983;28;20226;-77
2021/06/23 00:42:59;;;;;;;9.93;1.70;;;13.80;99.90;;;;;;5034965;28;20235;-77
2021/06/23 00:45:29;;;;;;;7.17;1.50;;;13.70;99.90;;;;;;5021792;28;20379;-78
2021/06/23 00:47:57;;;;;;;7.13;1.30;;;13.60;99.90;;;;;;5016066;28;20241;-78
2021/06/23 00:50:26;;;;;;;5.57;1.40;;;13.70;99.90;;;;;;5016192;28;20512;-80
2021/06/23 00:52:54;;;;;;;12.33;2.73;;;13.60;99.90;;;;;;5016587;28;20608;-78
2021/06/23 00:55:23;;;;;;;7.43;1.63;;;13.70;99.90;;;;;;5015920;28;20203;-80
2021/06/23 00:57:51;;;;;;;5.97;2.00;;;13.60;99.90;;;;;;5029330;28;20217;-78
2021/06/23 01:00:21;;;;;;;4.37;1.33;;;13.60;99.90;;;;;;5035926;28;20656;-78
2021/06/23 01:02:50;;;;;;;5.97;1.67;;;13.60;99.90;;;;;;5035623;28;20203;-79
2021/06/23 01:05:18;;;;;;;5.50;1.60;;;13.60;99.90;;;;;;5028475;28;20352;-78
2021/06/23 01:07:46;;;;;;;6.57;1.93;;;13.60;99.90;;;;;;5016331;28;20203;-80
2021/06/23 01:10:14;;;;;;;5.20;1.63;;;13.60;99.90;;;;;;5015544;28;20536;-82
2021/06/23 01:12:58;;;;;;;6.00;2.03;;;13.60;99.90;;;;;;5016236;28;20230;-82
2021/06/23 01:15:26;;;;;;;3.07;1.10;;;13.60;99.90;;;;;;5016108;28;20203;-78
2021/06/23 01:17:55;;;;;;;5.97;1.40;;;13.60;99.90;;;;;;5015739;28;20202;-80
2021/06/23 01:20:22;;;;;;;8.20;2.10;;;13.60;99.90;;;;;;5015683;28;20653;-80
2021/06/23 01:22:50;;;;;;;3.23;1.43;;;13.60;99.90;;;;;;5026172;28;20497;-80
2021/06/23 01:25:17;;;;;;;4.97;1.27;;;13.60;99.90;;;;;;5035883;28;20213;-79
2021/06/23 01:27:46;;;;;;;3.93;1.10;;;13.60;99.90;;;;;;5035541;28;20201;-78
2021/06/23 01:30:16;;;;;;;3.93;1.50;;;13.60;99.90;;;;;;5016159;28;20211;-79
2021/06/23 01:32:43;;;;;;;6.27;2.37;;;13.60;99.90;;;;;;5016215;28;20568;-78
2021/06/23 01:35:10;;;;;;;5.53;1.40;;;13.50;99.90;;;;;;5015554;28;20203;-81
2021/06/23 01:37:37;;;;;;;5.47;1.40;;;13.50;99.90;;;;;;5015773;28;20210;-81
2021/06/23 01:40:08;;;;;;;5.33;1.50;;;13.60;99.90;;;;;;5015754;28;20206;-81
2021/06/23 01:42:35;;;;;;;6.03;1.60;;;13.50;99.90;;;;;;5012837;28;20196;-77
2021/06/23 01:45:02;;;;;;;5.07;1.50;;;13.60;99.90;;;;;;5019308;28;20582;-77
2021/06/23 01:47:29;;;;;;;6.37;1.90;;;13.60;99.90;;;;;;5035325;28;20195;-76
2021/06/23 01:49:56;;;;;;;7.77;1.50;;;13.60;99.90;;;;;;5035204;28;20626;-77
2021/06/23 01:52:23;;;;;;;8.20;1.80;;;13.60;99.90;;;;;;5034787;28;20194;-80
2021/06/23 01:54:50;;;;;;;7.73;2.93;;;13.60;99.90;;;;;;5034192;28;20214;-81
2021/06/23 01:57:18;;;;;;;7.60;1.70;;;13.50;99.90;;;;;;5035644;28;20206;-81
2021/06/23 01:59:47;;;;;;;4.80;1.33;;;13.50;99.90;;;;;;5034748;28;20507;-79
2021/06/23 02:02:24;;;;;;;7.03;1.97;;;13.50;99.90;;;;;;5034852;28;20226;-81
2021/06/23 02:04:53;;;;;;;5.10;1.53;;;13.40;99.90;;;;;;5033395;28;20198;-80
2021/06/23 02:07:53;;;;;;;6.13;1.33;;;13.50;99.90;;;;;;5014783;28;20290;-80
2021/06/23 02:10:35;;;;;;;6.63;2.27;;;13.50;99.90;;;;;;5016063;28;20258;-83
2021/06/23 02:13:48;;;;;;;4.57;1.70;;;13.40;99.90;;;;;;5015154;28;20226;-79
2021/06/23 02:16:16;;;;;;;5.23;1.83;;;13.40;99.90;;;;;;4984850;28;20209;-80
2021/06/23 02:18:43;;;;;;;4.33;1.57;;;13.40;99.90;;;;;;5035235;28;20199;-81
2021/06/23 02:21:10;;;;;;;4.60;1.50;;;13.40;99.90;;;;;;5031933;28;20507;-82
2021/06/23 02:23:37;;;;;;;4.03;1.33;;;13.40;99.90;;;;;;5007811;28;20303;-78
2021/06/23 02:26:05;;;;;;;3.23;1.53;;;13.40;99.90;;;;;;5024240;28;20740;-81
2021/06/23 02:28:32;;;;;;;7.87;2.03;;;13.40;99.90;;;;;;5035218;28;20195;-79
2021/06/23 02:31:01;;;;;;;2.60;1.47;;;13.40;99.90;;;;;;5034654;28;20209;-78
2021/06/23 02:33:28;;;;;;;7.13;1.70;;;13.40;99.90;;;;;;5034263;28;20209;-80
2021/06/23 02:35:56;;;;;;;4.87;1.60;;;13.40;99.90;;;;;;5034887;28;20206;-84
2021/06/23 02:38:24;;;;;;;6.13;1.30;;;13.40;99.90;;;;;;5034214;28;20289;-79
2021/06/23 02:40:51;;;;;;;6.57;1.60;;;13.40;99.90;;;;;;5033679;28;20236;-79
2021/06/23 02:43:19;;;;;;;5.90;1.87;;;13.40;99.90;;;;;;5034414;28;20509;-78
2021/06/23 02:45:47;;;;;;;4.03;1.50;;;13.30;99.90;;;;;;5034068;28;20210;-79
2021/06/23 02:48:15;;;;;;;5.07;2.07;;;13.30;99.90;;;;;;5033950;28;20202;-78
2021/06/23 02:50:52;;;;;;;3.67;1.20;;;13.40;99.90;;;;;;5027678;28;20215;-78
2021/06/23 02:53:20;;;;;;;5.37;1.20;;;13.30;99.90;;;;;;5014869;28;20206;-79
2021/06/23 02:55:47;;;;;;;6.20;1.50;;;13.30;99.90;;;;;;5014617;28;20321;-80
2021/06/23 02:58:14;;;;;;;7.70;1.70;;;13.30;99.90;;;;;;5015174;28;20206;-83
2021/06/23 03:00:42;;;;;;;8.40;1.67;;;13.30;99.90;;;;;;5014558;28;20480;-80
2021/06/23 03:03:09;;;;;;;6.67;1.73;;;13.30;99.90;;;;;;5015861;28;20211;-79
2021/06/23 03:05:37;;;;;;;7.13;1.70;;;13.30;99.90;;;;;;5035238;28;20213;-79
2021/06/23 03:08:04;;;;;;;6.20;2.00;;;13.30;99.90;;;;;;5038392;28;20206;-80
2021/06/23 03:10:31;;;;;;;4.57;1.30;;;13.30;99.90;;;;;;5028733;28;20262;-82
2021/06/23 03:12:58;;;;;;;4.27;1.57;;;13.30;99.90;;;;;;5018026;28;20214;-82
2021/06/23 03:15:25;;;;;;;6.10;1.50;;;13.30;99.90;;;;;;5017553;28;20195;-80
2021/06/23 03:17:51;;;;;;;8.33;1.87;;;13.30;99.90;;;;;;5018823;28;20207;-83
2021/06/23 03:20:18;;;;;;;7.10;1.63;;;13.40;99.90;;;;;;5017943;28;20210;-79
2021/06/23 03:22:47;;;;;;;6.97;1.50;;;13.30;99.90;;;;;;5018327;28;20223;-79
2021/06/23 03:25:14;;;;;;;6.90;2.03;;;13.40;99.90;;;;;;5018164;28;20527;-82
2021/06/23 03:27:41;;;;;;;4.80;1.67;;;13.30;99.90;;;;;;5018447;28;20206;-80
2021/06/23 03:30:09;;;;;;;7.93;2.17;;;13.40;99.90;;;;;;5017978;28;20217;-81
2021/06/23 03:32:36;;;;;;;7.00;2.23;;;13.40;99.90;;;;;;5017775;28;20200;-83
2021/06/23 03:35:03;;;;;;;4.93;1.50;;;13.30;99.90;;;;;;5017795;28;20199;-79
2021/06/23 03:37:30;;;;;;;5.30;1.60;;;13.30;99.90;;;;;;5017540;28;20203;-79
2021/06/23 03:39:58;;;;;;;7.20;1.70;;;13.30;99.90;;;;;;5017595;28;20481;-79
2021/06/23 03:42:24;;;;;;;7.53;1.80;;;13.30;99.90;;;;;;5018260;28;20234;-80
2021/06/23 03:44:51;;;;;;;7.13;1.50;;;13.30;99.90;;;;;;5017353;28;20199;-82
2021/06/23 03:47:18;;;;;;;6.30;1.70;;;13.30;99.90;;;;;;5017930;28;20211;-84
2021/06/23 03:49:45;;;;;;;9.00;2.13;;;13.40;99.90;;;;;;5017899;28;20207;-81
2021/06/23 03:52:11;;;;;;;3.53;1.33;;;13.30;99.90;;;;;;5017074;28;20200;-80
2021/06/23 03:54:38;;;;;;;9.60;2.20;;;13.40;99.90;;;;;;5036212;28;20210;-79
2021/06/23 03:57:07;;;;;;;6.63;1.80;;;13.40;99.90;;;;;;5037546;28;20206;-83
2021/06/23 03:59:33;;;;;;;5.10;1.80;;;13.30;99.90;;;;;;5035075;28;21001;-83
2021/06/23 04:02:00;;;;;;;5.33;1.87;;;13.30;99.90;;;;;;5017452;28;20226;-82
2021/06/23 04:04:27;;;;;;;5.90;1.93;;;13.30;99.90;;;;;;5017538;28;20203;-83
2021/06/23 04:06:53;;;;;;;7.87;2.30;;;13.40;99.90;;;;;;5016728;28;20215;-83
2021/06/23 04:09:20;;;;;;;9.20;2.00;;;13.40;99.90;;;;;;5017311;28;20584;-80
2021/06/23 04:11:47;;;;;;;9.03;2.23;;;13.40;99.90;;;;;;5016854;28;20246;-80
2021/06/23 04:14:15;;;;;;;4.40;1.70;;;13.40;99.90;;;;;;5017832;28;20210;-81
2021/06/23 04:16:42;;;;;;;8.83;1.97;;;13.40;99.90;;;;;;5016816;28;20207;-82
2021/06/23 04:19:09;;;;;;;7.87;2.03;;;13.40;99.90;;;;;;5016003;28;20206;-82
2021/06/23 04:21:36;;;;;;;11.83;2.90;;;13.40;99.90;;;;;;5028563;22;20234;-82
2021/06/23 04:24:03;;;;;;;5.60;1.50;;;13.50;99.90;;;;;;5056017;28;20513;-81
2021/06/23 04:26:30;;;;;;;5.60;1.90;;;13.50;99.90;;;;;;5055880;28;20217;-81
2021/06/23 04:28:56;;;;;;;8.47;2.70;;;13.50;99.90;;;;;;5056761;28;20503;-82
2021/06/23 04:31:24;;;;;;;4.57;2.17;;;13.40;99.90;;;;;;5054866;28;20190;-80
2021/06/23 04:33:51;;;;;;;5.67;1.43;;;13.40;99.90;;;;;;5035915;28;20205;-81
2021/06/23 04:36:18;;;;;;;9.10;2.50;;;13.50;99.90;;;;;;5041154;28;20209;-81
2021/06/23 04:38:45;;;;;;;3.97;1.53;;;13.50;99.90;;;;;;5056611;28;20229;-81
2021/06/23 04:41:12;;;;;;;6.50;2.10;;;13.50;99.90;;;;;;5055632;28;20201;-81
2021/06/23 04:43:38;;;;;;;8.20;1.80;;;13.50;99.90;;;;;;5056258;28;20190;-80
2021/06/23 04:46:06;;;;;;;7.00;1.70;;;13.60;99.90;;;;;;5055681;28;20590;-80
2021/06/23 04:48:34;;;;;;;5.00;1.67;;;13.60;99.90;;;;;;5055512;28;20201;-82
2021/06/23 04:51:01;;;;;;;6.50;2.30;;;13.70;99.90;;;;;;5056031;28;20228;-80
2021/06/23 04:53:27;;;;;;;5.77;1.90;;;13.70;99.90;;;;;;5056233;28;20190;-80
2021/06/23 04:55:55;;;;;;;6.17;2.00;;;13.80;99.90;;;;;;5054879;28;20202;-81
2021/06/23 04:58:22;;;;;;;6.40;1.93;;;13.90;99.90;;;;;;5055976;28;20256;-80
2021/06/23 05:00:49;;;;;;;5.70;2.23;;;13.90;99.90;;;;;;5055302;28;20209;-80
2021/06/23 05:03:16;;;;;;;4.00;1.60;;;14.00;99.90;;;;;;5055392;28;20226;-82
2021/06/23 05:05:44;;;;;;;9.37;1.73;;;14.00;99.90;;;;;;5056118;28;20202;-80
2021/06/23 05:08:11;;;;;;;4.63;1.80;;;14.10;99.90;;;;;;5055506;28;20197;-79
2021/06/23 05:10:38;;;;;;;7.13;1.90;;;14.20;99.90;;;;;;5038101;28;20222;-79
2021/06/23 05:13:04;;;;;;;3.90;1.60;;;14.30;99.90;;;;;;5036002;28;20206;-78
2021/06/23 05:15:31;;;;;;;6.00;1.57;;;14.30;99.90;;;;;;5043110;28;20292;-79
2021/06/23 05:17:58;;;;;;;6.77;1.70;;;14.30;99.90;;;;;;5055953;28;20206;-81
2021/06/23 05:20:25;;;;;;;5.73;1.63;;;14.30;99.90;;;;;;5054934;28;20209;-82
2021/06/23 05:22:53;;;;;;;9.43;2.40;;;14.40;99.90;;;;;;5054639;28;20237;-84
2021/06/23 05:25:21;;;;;;;4.53;1.33;;;14.40;99.90;;;;;;5055453;28;20624;-83
2021/06/23 05:27:48;;;;;;;7.30;2.50;;;14.40;99.90;;;;;;5055366;28;20208;-81
2021/06/23 05:30:16;;;;;;;5.80;1.73;;;14.40;99.90;;;;;;5054864;28;20494;-82
2021/06/23 05:32:43;;;;;;;3.67;1.50;;;14.40;99.90;;;;;;5054757;28;20202;-78
2021/06/23 05:35:11;;;;;;;5.93;2.10;;;14.50;99.90;;;;;;5055450;28;20594;-81
2021/06/23 05:37:38;;;;;;;5.83;1.73;;;14.50;99.90;;;;;;5055150;28;20263;-82
2021/06/23 05:40:07;;;;;;;6.67;1.80;;;14.50;99.90;;;;;;5038561;28;20229;-83
2021/06/23 05:42:34;;;;;;;6.73;1.67;;;14.50;99.90;;;;;;5041677;28;20226;-82
2021/06/23 05:45:01;;;;;;;5.03;2.07;;;14.60;99.90;;;;;;5054617;28;20194;-79
2021/06/23 05:47:28;;;;;;;5.37;1.87;;;14.60;99.90;;;;;;5055044;28;20615;-79
2021/06/23 05:49:54;;;;;;;7.57;2.30;;;14.70;99.90;;;;;;5055088;28;20205;-81
2021/06/23 05:52:21;;;;;;;8.27;1.90;;;14.70;99.90;;;;;;5053909;28;20210;-78
2021/06/23 05:54:48;;;;;;;8.87;2.47;;;14.70;99.90;;;;;;5054938;28;20202;-80
2021/06/23 05:57:16;;;;;;;9.23;1.90;;;14.80;99.90;;;;;;5054253;28;20239;-84
2021/06/23 05:59:43;;;;;;;4.40;1.70;;;14.90;99.90;;;;;;5055296;28;20202;-83
2021/06/23 06:02:09;;;;;;;4.43;1.73;;;15.00;99.90;;;;;;5051110;28;20218;-78
2021/06/23 06:04:36;;;;;;;7.07;1.70;;;15.10;99.90;;;;;;5026646;28;20206;-79
2021/06/23 06:07:03;;;;;;;3.60;1.90;;;15.20;99.90;;;;;;5039434;28;20216;-80
2021/06/23 06:09:30;;;;;;;4.80;1.80;;;15.30;99.90;;;;;;5055252;28;20216;-79
2021/06/23 06:11:57;;;;;;;5.43;1.30;;;15.30;99.90;;;;;;5054358;28;20218;-83
2021/06/23 06:14:25;;;;;;;3.80;1.83;;;15.30;99.90;;;;;;5054391;28;20197;-82
2021/06/23 06:16:52;;;;;;;7.40;1.83;;;15.40;99.90;;;;;;5055173;28;20221;-83
2021/06/23 06:19:19;;;;;;;5.63;1.83;;;15.60;99.90;;;;;;5054870;28;20198;-84
2021/06/23 06:21:47;;;;;;;6.17;2.13;;;15.70;99.90;;;;;;5054556;28;20240;-80
2021/06/23 06:24:13;;;;;;;6.47;1.90;;;15.80;99.90;;;;;;5054101;28;20241;-80
2021/06/23 06:26:40;;;;;;;8.43;1.97;;;15.90;99.90;;;;;;5054432;28;20197;-81
2021/06/23 06:29:07;;;;;;;6.53;1.58;;;16.00;99.90;;;;;;5055203;28;20202;-81
2021/06/23 06:31:35;;;;;;;6.17;1.70;;;16.20;99.90;;;;;;5049164;28;20217;-82
2021/06/23 06:34:02;;;;;;;6.53;1.87;;;16.10;99.90;;;;;;5034629;28;20195;-82
2021/06/23 06:36:29;;;;;;;4.77;1.57;;;16.20;99.90;;;;;;5034849;28;20207;-83
2021/06/23 06:38:56;;;;;;;6.73;2.13;;;16.10;99.90;;;;;;5034759;28;20614;-83
2021/06/23 06:41:22;;;;;;;3.70;1.20;;;16.00;99.90;;;;;;5043810;28;20210;-79
2021/06/23 06:43:49;;;;;;;4.30;1.75;;;16.10;99.90;;;;;;5058567;28;20519;-80
2021/06/23 06:46:16;;;;;;;14.10;2.63;;;16.20;99.90;;;;;;5058119;28;20194;-82
2021/06/23 06:48:44;;;;;;;6.80;1.90;;;16.20;99.90;;;;;;5038072;28;20204;-80
2021/06/23 06:51:11;;;;;;;3.87;1.73;;;16.10;99.90;;;;;;5038528;28;20213;-79
2021/06/23 06:53:37;;;;;;;6.60;2.10;;;16.00;99.90;;;;;;5037827;28;20203;-79
2021/06/23 06:56:05;;;;;;;6.60;1.90;;;15.80;99.90;;;;;;5038551;28;20539;-79
2021/06/23 06:58:31;;;;;;;5.70;2.00;;;15.80;99.90;;;;;;5038072;28;20598;-81
2021/06/23 07:00:58;;;;;;;5.03;1.50;;;15.70;99.90;;;;;;5037837;28;20202;-81
2021/06/23 07:03:25;;;;;;;5.40;1.60;;;15.70;99.90;;;;;;5055431;28;20629;-80
2021/06/23 07:05:54;;;;;;;4.20;1.43;;;15.70;99.90;;;;;;5058226;28;20205;-80
2021/06/23 07:08:21;;;;;;;5.20;1.80;;;15.70;99.90;;;;;;5057272;28;20292;-78
2021/06/23 07:10:47;;;;;;;8.10;1.80;;;15.70;99.90;;;;;;5048733;28;20234;-78
2021/06/23 07:13:14;;;;;;;8.73;2.10;;;15.70;99.90;;;;;;5037988;28;20206;-78
2021/06/23 07:15:41;;;;;;;3.97;1.83;;;15.70;99.90;;;;;;5037630;28;20207;-79
2021/06/23 07:18:08;;;;;;;7.40;1.93;;;15.70;99.90;;;;;;5038668;28;20203;-83
2021/06/23 07:20:35;;;;;;;4.27;1.77;;;15.70;99.90;;;;;;5037973;28;20194;-82
2021/06/23 07:23:03;;;;;;;6.60;2.67;;;15.80;99.90;;;;;;5037483;28;20241;-78
2021/06/23 07:25:30;;;;;;;5.97;2.00;;;15.80;99.90;;;;;;5038192;28;20207;-83
2021/06/23 07:27:57;;;;;;;5.73;1.80;;;15.80;99.90;;;;;;5038423;28;20622;-78
2021/06/23 07:30:24;;;;;;;4.80;1.80;;;15.80;99.90;;;;;;5037367;28;20294;-78
2021/06/23 07:32:54;;;;;;;5.37;1.80;;;15.80;99.90;;;;;;5037768;28;20198;-79
2021/06/23 07:38:10;;;;;;;4.47;1.80;;;15.80;99.90;;;;;;5057644;28;20190;-80
2021/06/23 07:40:47;;;;;;;10.90;2.00;;;15.80;99.90;;;;;;5057550;28;20198;-78
2021/06/23 07:43:14;;;;;;;5.00;2.15;;;15.90;99.90;;;;;;5057167;28;20303;-78
2021/06/23 07:45:44;;;;;;;5.93;2.07;;;15.90;99.90;;;;;;5038189;28;20210;-78
2021/06/23 07:48:11;;;;;;;5.03;2.20;;;15.90;99.90;;;;;;5037433;28;20237;-83
2021/06/23 07:50:42;;;;;;;6.13;1.60;;;15.90;99.90;;;;;;5050762;28;20233;-81
2021/06/23 07:53:16;;;;;;;7.47;1.60;;;15.90;99.90;;;;;;5057355;28;20198;-78
2021/06/23 07:55:47;;;;;;;7.40;2.67;;;16.00;99.90;;;;;;5057371;28;20734;-77
2021/06/23 08:09:22;;;;;;;5.83;2.03;;;16.10;99.90;;;;;;5056786;28;20205;-76
2021/06/23 08:11:52;;;;;;;3.77;1.67;;;16.20;99.90;;;;;;5056654;28;20229;-79
2021/06/23 08:14:19;;;;;;;4.77;1.67;;;16.20;99.90;;;;;;5056971;28;20194;-77
2021/06/23 08:16:48;;;;;;;4.17;1.60;;;16.20;99.90;;;;;;5056817;28;20206;-80
2021/06/23 08:19:15;;;;;;;5.13;1.33;;;16.20;99.90;;;;;;5056151;28;20198;-78
2021/06/23 08:21:41;;;;;;;7.23;1.73;;;16.30;99.90;;;;;;5037393;28;20211;-80
2021/06/23 08:24:09;;;;;;;5.00;1.70;;;16.40;99.90;;;;;;5036660;28;20222;-81
2021/06/23 08:26:37;;;;;;;6.27;1.57;;;16.40;99.90;;;;;;5036029;28;20205;-83
2021/06/23 08:29:04;;;;;;;3.55;1.95;;;16.40;99.90;;;;;;5037374;28;20641;-78
2021/06/23 08:31:31;;;;;;;3.60;1.53;;;16.40;99.90;;;;;;5036672;28;20209;-78
2021/06/23 08:33:57;;;;;;;3.53;1.40;;;16.40;99.90;;;;;;5036553;28;20510;-80
2021/06/23 08:36:24;;;;;;;6.57;1.70;;;16.50;99.90;;;;;;5036081;28;20199;-80
2021/06/23 08:38:52;;;;;;;6.63;1.70;;;16.50;99.90;;;;;;5036612;28;20194;-80
2021/06/23 08:41:19;;;;;;;5.70;2.07;;;16.50;99.90;;;;;;5036792;28;20217;-83
2021/06/23 08:43:47;;;;;;;6.10;1.57;;;16.70;99.90;;;;;;5036527;28;20524;-78
2021/06/23 08:46:14;;;;;;;4.38;1.58;;;16.70;99.90;;;;;;5036014;28;20641;-76
2021/06/23 08:48:42;;;;;;;6.77;1.50;;;16.70;99.90;;;;;;5043190;28;20209;-78
2021/06/23 08:51:08;;;;;;;5.53;1.70;;;16.70;99.90;;;;;;5056557;28;20202;-83
2021/06/23 08:53:36;;;;;;;4.23;1.70;;;16.80;99.90;;;;;;5055715;28;20195;-80
2021/06/23 08:56:04;;;;;;;4.82;1.50;;;16.90;99.90;;;;;;5036428;28;20215;-78
2021/06/23 08:58:31;;;;;;;3.30;1.23;;;16.90;99.90;;;;;;5036075;28;20198;-78
2021/06/23 09:00:59;;;;;;;4.80;1.60;;;16.90;99.90;;;;;;5035745;28;20615;-78
2021/06/23 09:03:26;;;;;;;6.00;1.80;;;16.80;99.90;;;;;;5039068;28;20226;-84
2021/06/23 09:05:54;;;;;;;5.10;1.58;;;16.70;99.90;;;;;;5055973;28;20202;-84
2021/06/23 09:08:36;;;;;;;5.25;1.58;;;16.70;99.90;;;;;;5055093;28;20204;-77
2021/06/23 09:11:13;;;;;;;5.95;2.03;;;16.70;99.90;;;;;;5055250;28;20234;-79
2021/06/23 09:13:40;;;;;;;6.10;1.80;;;16.70;99.90;;;;;;5055334;28;20193;-78
2021/06/23 09:16:10;;;;;;;6.60;2.40;;;16.70;99.90;;;;;;5055036;28;20594;-76
2021/06/23 09:18:39;;;;;;;4.88;2.20;;;16.80;99.90;;;;;;5045455;28;20456;-80
2021/06/23 09:21:15;;;;;;;4.80;1.50;;;17.00;99.90;;;;;;5035196;28;20253;-80
2021/06/23 09:23:44;;;;;;;3.45;1.60;;;17.20;99.90;;;;;;5035447;28;20257;-79
2021/06/23 09:26:13;;;;;;;6.88;1.80;;;17.40;99.90;;;;;;5035774;28;20510;-78
2021/06/23 09:28:41;;;;;;;4.90;1.63;;;17.70;99.90;;;;;;5035412;28;20222;-80
2021/06/23 09:31:10;;;;;;;4.93;1.63;;;17.70;99.90;;;;;;5039473;28;20198;-80
2021/06/23 09:33:38;;;;;;;5.82;1.55;;;17.80;99.90;;;;;;5047334;28;20190;-83
2021/06/23 09:36:08;;;;;;;4.57;1.75;;;17.80;99.90;;;;;;5054746;28;20202;-83
2021/06/23 09:38:44;;;;;;;5.07;1.58;;;17.80;99.90;;;;;;5055177;28;20206;-84
2021/06/23 09:41:27;;;;;;;5.82;1.80;;;17.70;99.90;;;;;;5035440;28;20680;-88
2021/06/23 09:43:55;;;;;;;6.88;2.28;;;17.70;99.90;;;;;;5034936;28;20218;-78
2021/06/23 09:46:27;;;;;;;6.97;1.40;;;17.40;99.90;;;;;;5035441;28;20209;-80
2021/06/23 09:49:07;;;;;;;5.18;1.67;;;17.50;99.90;;;;;;5034892;28;20595;-83
2021/06/23 09:51:43;;;;;;;4.30;1.63;;;17.50;99.90;;;;;;5035239;28;20237;-82
2021/06/23 09:54:11;;;;;;;5.22;1.50;;;17.70;99.90;;;;;;5035255;28;20205;-83
2021/06/23 09:56:41;;;;;;;6.82;1.63;;;17.70;99.90;;;;;;5035664;28;20213;-79
2021/06/23 09:59:16;;;;;;;6.25;1.40;;;17.60;99.90;;;;;;5035562;28;20493;-79
2021/06/23 10:01:45;;;;;;;4.60;1.50;;;17.70;99.90;;;;;;5035696;28;20187;-80
2021/06/23 10:04:12;;;;;;;4.80;1.58;;;17.70;99.90;;;;;;5035616;28;20238;-79
2021/06/23 10:06:42;;;;;;;6.85;2.75;;;17.80;99.90;;;;;;5044218;28;20209;-84
2021/06/23 10:09:21;;;;;;;7.03;2.15;;;17.90;99.90;;;;;;5055161;28;20209;-78
2021/06/23 10:11:51;;;;;;;3.60;1.58;;;17.90;99.90;;;;;;5054999;28;20514;-80
2021/06/23 10:14:19;;;;;;;6.93;2.03;;;17.90;99.90;;;;;;5055149;28;20206;-80
2021/06/23 10:16:49;;;;;;;4.60;1.60;;;18.00;99.90;;;;;;5058068;28;20470;-79
2021/06/23 10:19:17;;;;;;;5.57;1.60;;;18.00;99.90;;;;;;5059225;28;20186;-79
2021/06/23 10:21:45;;;;;;;2.65;1.38;;;18.10;99.90;;;;;;5059560;28;20279;-83
2021/06/23 10:24:13;;;;;;;7.90;2.05;;;18.20;99.90;;;;;;5058748;28;20230;-84
2021/06/23 10:26:47;;;;;;;3.65;1.63;;;18.10;99.90;;;;;;5039235;28;20190;-80
2021/06/23 10:29:21;;;;;;;4.07;1.55;;;18.20;99.90;;;;;;5051071;28;20212;-78
2021/06/23 10:31:50;;;;;;;5.22;1.45;;;18.10;99.90;;;;;;5058518;28;20190;-82
2021/06/23 10:34:18;;;;;;;3.05;1.67;;;18.10;99.90;;;;;;5058418;28;20201;-79
2021/06/23 10:36:45;;;;;;;4.78;1.52;;;18.20;99.90;;;;;;5039066;28;20203;-85
2021/06/23 10:39:14;;;;;;;4.43;1.55;;;18.40;99.90;;;;;;5039012;28;20206;-80
2021/06/23 10:41:43;;;;;;;3.38;1.65;;;18.60;99.90;;;;;;5039342;28;20222;-80
2021/06/23 10:44:24;;;;;;;3.45;1.50;;;18.90;99.90;;;;;;5048806;28;20217;-82
2021/06/23 10:46:56;;;;;;;4.38;1.55;;;19.00;99.90;;;;;;5058482;28;20304;-86
2021/06/23 10:49:40;;;;;;;5.65;1.73;;;19.10;99.90;;;;;;5058863;28;20574;-82
2021/06/23 10:52:32;;;;;;;4.93;1.67;;;18.90;99.90;;;;;;5038765;28;20206;-79
2021/06/23 10:55:00;;;;;;;4.00;1.70;;;19.00;99.90;;;;;;5046335;28;20208;-81
2021/06/23 10:57:27;;;;;;;7.78;1.58;;;19.00;99.90;;;;;;5058636;28;20206;-80
2021/06/23 10:59:55;;;;;;;4.00;1.52;;;19.00;99.90;;;;;;5039921;28;20210;-81
2021/06/23 11:02:37;;;;;;;4.13;1.48;;;19.00;99.90;;;;;;5046327;28;20210;-81
2021/06/23 11:05:08;;;;;;;8.02;1.60;;;18.80;99.90;;;;;;5058271;28;20230;-77
2021/06/23 11:07:36;;;;;;;3.83;1.77;;;18.70;99.90;;;;;;5057700;28;20205;-79
2021/06/23 11:10:28;;;;;;;3.45;1.55;;;18.70;99.90;;;;;;5045682;28;20210;-80
2021/06/23 11:12:57;;;;;;;4.65;1.35;;;18.60;99.90;;;;;;5038217;28;20211;-79
2021/06/23 11:15:26;;;;;;;4.30;1.60;;;18.40;99.90;;;;;;5039896;28;20221;-79
2021/06/23 11:17:56;;;;;;;7.25;1.67;;;18.50;99.90;;;;;;5057762;28;20217;-80
2021/06/23 11:20:39;;;;;;;5.28;1.92;;;18.50;99.90;;;;;;5058226;28;20252;-82
2021/06/23 11:23:06;;;;;;;3.47;1.67;;;18.50;99.90;;;;;;5043532;28;20284;-78
2021/06/23 11:25:34;;;;;;;2.47;1.25;;;18.60;99.90;;;;;;5037927;28;20226;-80
2021/06/23 11:28:25;;;;;;;6.45;1.88;;;18.90;99.90;;;;;;5037158;28;20231;-84
2021/06/23 11:31:10;;;;;;;7.07;2.10;;;19.10;99.90;;;;;;5055768;28;20204;-82
2021/06/23 11:33:57;;;;;;;3.05;1.60;;;19.30;99.90;;;;;;5050646;28;20202;-82
2021/06/23 11:36:25;;;;;;;6.25;1.60;;;19.40;99.90;;;;;;5037478;28;20556;-82
2021/06/23 11:38:54;;;;;;;6.03;1.90;;;19.50;99.90;;;;;;5037822;28;20205;-78
2021/06/23 11:41:21;;;;;;;6.68;1.60;;;19.30;99.90;;;;;;5040360;28;20210;-81
2021/06/23 11:43:48;;;;;;;3.92;1.65;;;19.30;99.90;;;;;;5057699;28;20222;-83
2021/06/23 11:46:16;;;;;;;9.65;2.17;;;19.20;99.90;;;;;;5043583;28;20210;-79
2021/06/23 11:48:43;;;;;;;6.95;1.92;;;19.30;99.90;;;;;;5037488;28;20202;-80
2021/06/23 11:51:11;;;;;;;7.85;1.83;;;19.30;99.90;;;;;;5037396;28;20198;-81
2021/06/23 11:53:39;;;;;;;4.90;1.90;;;19.30;99.90;;;;;;5037792;28;20210;-83
2021/06/23 11:56:06;;;;;;;4.30;1.70;;;18.90;99.90;;;;;;5037916;28;20207;-79
2021/06/23 11:58:34;;;;;;;6.65;2.03;;;19.10;99.90;;;;;;5037551;28;20195;-82
2021/06/23 12:01:01;;;;;;;6.22;1.80;;;19.30;99.90;;;;;;5037463;28;20206;-80
2021/06/23 12:03:28;;;;;;;4.30;1.58;;;19.30;99.90;;;;;;5054304;28;20594;-83
2021/06/23 12:05:55;;;;;;;5.10;1.83;;;19.60;99.90;;;;;;5057067;28;20591;-80
2021/06/23 12:08:24;;;;;;;4.60;1.80;;;19.50;99.90;;;;;;5057272;28;20244;-78
2021/06/23 12:10:50;;;;;;;4.53;1.58;;;19.40;99.90;;;;;;5056124;28;20232;-80
2021/06/23 12:13:17;;;;;;;4.97;1.98;;;19.40;99.90;;;;;;5056986;28;20585;-81
2021/06/23 12:15:44;;;;;;;7.90;1.67;;;19.60;99.90;;;;;;5057147;28;20205;-80
2021/06/23 12:18:12;;;;;;;4.85;1.80;;;19.70;99.90;;;;;;5038342;28;20210;-83
2021/06/23 12:20:40;;;;;;;6.97;1.85;;;19.80;99.90;;;;;;5037018;28;20252;-81
2021/06/23 12:23:09;;;;;;;5.45;1.80;;;19.90;99.90;;;;;;5054327;28;20253;-82
2021/06/23 12:25:39;;;;;;;4.60;1.70;;;20.00;99.90;;;;;;5056677;28;20226;-83
2021/06/23 12:28:10;;;;;;;4.38;1.58;;;20.20;99.90;;;;;;5057257;28;20186;-84
2021/06/23 12:30:38;;;;;;;7.30;2.22;;;20.30;99.90;;;;;;5042376;28;20213;-83
2021/06/23 12:33:08;;;;;;;8.68;1.85;;;20.50;99.90;;;;;;5036544;28;20265;-85
2021/06/23 12:35:35;;;;;;;9.45;2.08;;;20.20;99.90;;;;;;5047755;28;20248;-85
2021/06/23 12:38:02;;;;;;;5.07;1.90;;;20.20;99.90;;;;;;5055855;28;20207;-78
2021/06/23 12:40:30;;;;;;;2.63;1.40;;;20.30;99.90;;;;;;5056405;28;20205;-81
2021/06/23 12:42:58;;;;;;;3.15;2.13;;;20.30;99.90;;;;;;5056713;28;20205;-86
2021/06/23 12:45:25;;;;;;;4.30;2.00;;;20.50;99.90;;;;;;5056167;28;20226;-80
2021/06/23 12:47:51;;;;;;;5.05;1.88;;;20.50;99.90;;;;;;5044547;28;20226;-84
2021/06/23 12:50:18;;;;;;;5.95;1.88;;;20.50;99.90;;;;;;5036807;28;20203;-84
2021/06/23 12:52:46;;;;;;;4.97;1.52;;;20.40;99.90;;;;;;5036131;28;20257;-80
2021/06/23 12:55:14;;;;;;;5.30;1.80;;;20.20;99.90;;;;;;5037285;28;20202;-83
2021/06/23 12:57:40;;;;;;;5.18;2.03;;;19.90;99.90;;;;;;5056321;28;20213;-81
2021/06/23 13:00:11;;;;;;;4.68;1.42;;;19.80;99.90;;;;;;5049679;28;20621;-79
2021/06/23 13:02:38;;;;;;;5.75;1.83;;;19.60;99.90;;;;;;5035765;28;20504;-79
2021/06/23 13:05:07;;;;;;;2.67;1.80;;;19.60;99.90;;;;;;5035871;28;20219;-80
2021/06/23 13:07:34;;;;;;;4.60;2.25;;;19.10;99.90;;;;;;5036081;28;20207;-77